createdAt,value
2018-07-15T00:01:02.022Z,101706.59
2018-07-15T00:03:30.403Z,101703.11
2018-07-15T00:05:58.833Z,101703.95
2018-07-15T00:08:27.263Z,101708.75
2018-07-15T00:10:55.661Z,101709.59
2018-07-15T00:13:24.026Z,101706.54
2018-07-15T00:15:52.413Z,101700.41
2018-07-15T00:18:20.786Z,101699.52
2018-07-15T00:20:49.190Z,101698.20
2018-07-15T00:23:17.564Z,101700.80
2018-07-15T00:25:45.943Z,101700.33
2018-07-15T00:28:14.343Z,101695.50
2018-07-15T00:30:42.714Z,101697.66
2018-07-15T00:33:11.106Z,101697.19
2018-07-15T00:35:39.477Z,101698.50
2018-07-15T00:38:08.051Z,101693.64
2018-07-15T00:40:36.419Z,101698.88
2018-07-15T00:43:04.818Z,101698.84
2018-07-15T00:45:33.182Z,101696.63
2018-07-15T00:48:01.585Z,101699.22
2018-07-15T00:50:29.979Z,101697.87
2018-07-15T00:52:58.379Z,101691.75
2018-07-15T00:55:26.747Z,101695.64
2018-07-15T00:57:55.138Z,101692.53
2018-07-15T01:00:28.924Z,101698.16
2018-07-15T01:02:57.318Z,101699.42
2018-07-15T01:05:25.696Z,101689.38
2018-07-15T01:07:54.089Z,101693.70
2018-07-15T01:10:22.553Z,101693.23
2018-07-15T01:12:50.952Z,101699.30
2018-07-15T01:15:19.321Z,101694.50
2018-07-15T01:17:47.706Z,101694.03
2018-07-15T01:20:16.075Z,101698.82
2018-07-15T01:22:44.479Z,101703.58
2018-07-15T01:25:12.841Z,101699.16
2018-07-15T01:27:41.239Z,101698.69
2018-07-15T01:30:09.626Z,101694.70
2018-07-15T01:32:38.047Z,101693.79
2018-07-15T01:35:06.423Z,101694.63
2018-07-15T01:37:34.827Z,101695.02
2018-07-15T01:40:03.193Z,101693.28
2018-07-15T01:42:31.593Z,101689.33
2018-07-15T01:44:59.967Z,101685.81
2018-07-15T01:47:28.343Z,101683.20
2018-07-15T01:49:56.729Z,101685.30
2018-07-15T01:52:25.101Z,101677.91
2018-07-15T01:54:53.490Z,101682.70
2018-07-15T01:57:21.859Z,101680.48
2018-07-15T01:59:50.250Z,101677.44
2018-07-15T02:02:18.618Z,101679.61
2018-07-15T02:04:47.015Z,101680.02
2018-07-15T02:07:15.386Z,101679.14
2018-07-15T02:09:43.803Z,101685.67
2018-07-15T02:12:12.177Z,101682.62
2018-07-15T02:14:40.579Z,101676.06
2018-07-15T02:17:08.999Z,101678.67
2018-07-15T02:19:37.619Z,101683.45
2018-07-15T02:22:05.981Z,101682.15
2018-07-15T02:24:34.376Z,101676.03
2018-07-15T02:27:02.752Z,101669.94
2018-07-15T02:29:31.154Z,101668.16
2018-07-15T02:31:59.528Z,101668.55
2018-07-15T02:34:27.926Z,101666.78
2018-07-15T02:36:56.318Z,101665.47
2018-07-15T02:39:24.718Z,101675.04
2018-07-15T02:41:53.112Z,101667.17
2018-07-15T02:44:21.510Z,101673.27
2018-07-15T02:46:49.882Z,101678.88
2018-07-15T02:49:18.273Z,101676.23
2018-07-15T02:51:46.663Z,101674.92
2018-07-15T02:54:15.067Z,101679.23
2018-07-15T02:56:43.438Z,101682.67
2018-07-15T02:59:11.841Z,101679.59
2018-07-15T03:01:40.218Z,101681.76
2018-07-15T03:04:08.742Z,101677.81
2018-07-15T03:06:37.162Z,101679.55
2018-07-15T03:09:07.601Z,101680.41
2018-07-15T03:11:35.993Z,101681.72
2018-07-15T03:14:04.370Z,101686.06
2018-07-15T03:16:32.775Z,101688.67
2018-07-15T03:19:01.141Z,101689.12
2018-07-15T03:21:29.537Z,101690.89
2018-07-15T03:23:57.902Z,101684.80
2018-07-15T03:26:26.298Z,101679.59
2018-07-15T03:28:54.661Z,101685.28
2018-07-15T03:31:23.089Z,101681.36
2018-07-15T03:33:51.475Z,101680.50
2018-07-15T03:36:19.874Z,101674.88
2018-07-15T03:38:48.246Z,101676.63
2018-07-15T03:41:16.647Z,101669.70
2018-07-15T03:43:45.022Z,101667.05
2018-07-15T03:46:13.418Z,101676.70
2018-07-15T03:48:41.781Z,101676.74
2018-07-15T03:51:10.177Z,101675.08
2018-07-15T03:53:38.541Z,101677.30
2018-07-15T03:56:07.039Z,101675.55
2018-07-15T03:58:35.413Z,101679.94
2018-07-15T04:01:03.818Z,101680.84
2018-07-15T04:03:32.186Z,101678.31
2018-07-15T04:06:00.574Z,101683.45
2018-07-15T04:08:29.313Z,101682.55
2018-07-15T04:10:57.677Z,101679.48
2018-07-15T04:13:26.050Z,101680.27
2018-07-15T04:15:54.467Z,101683.27
2018-07-15T04:18:22.830Z,101683.94
2018-07-15T04:20:51.229Z,101685.45
2018-07-15T04:23:19.598Z,101681.72
2018-07-15T04:25:47.985Z,101693.16
2018-07-15T04:28:16.437Z,101677.51
2018-07-15T04:30:44.901Z,101686.71
2018-07-15T04:33:13.266Z,101685.45
2018-07-15T04:35:41.652Z,101684.09
2018-07-15T04:38:10.038Z,101687.14
2018-07-15T04:40:38.407Z,101694.95
2018-07-15T04:43:06.793Z,101694.02
2018-07-15T04:45:35.161Z,101696.59
2018-07-15T04:48:03.555Z,101695.73
2018-07-15T04:50:31.929Z,101692.68
2018-07-15T04:53:00.350Z,101701.86
2018-07-15T04:55:28.714Z,101701.42
2018-07-15T04:57:57.105Z,101699.70
2018-07-15T05:00:25.475Z,101701.45
2018-07-15T05:02:53.869Z,101703.22
2018-07-15T05:05:22.233Z,101708.50
2018-07-15T05:07:50.629Z,101705.88
2018-07-15T05:10:19.017Z,101702.36
2018-07-15T05:12:47.414Z,101697.98
2018-07-15T05:15:15.799Z,101705.89
2018-07-15T05:17:44.186Z,101705.91
2018-07-15T05:20:12.550Z,101702.86
2018-07-15T05:22:40.937Z,101702.40
2018-07-15T05:25:09.314Z,101701.53
2018-07-15T05:27:37.707Z,101702.41
2018-07-15T05:30:06.491Z,101701.54
2018-07-15T05:32:35.096Z,101696.75
2018-07-15T05:35:03.526Z,101695.44
2018-07-15T05:37:31.882Z,101698.92
2018-07-15T05:40:00.245Z,101697.17
2018-07-15T05:42:28.674Z,101705.05
2018-07-15T05:44:57.045Z,101701.11
2018-07-15T05:47:25.437Z,101697.58
2018-07-15T05:49:53.797Z,101699.75
2018-07-15T05:52:22.181Z,101703.67
2018-07-15T05:54:50.566Z,101697.12
2018-07-15T05:57:18.974Z,101704.11
2018-07-15T05:59:47.446Z,101699.65
2018-07-15T06:02:15.839Z,101701.81
2018-07-15T06:04:44.211Z,101701.28
2018-07-15T06:07:12.602Z,101700.28
2018-07-15T06:09:41.001Z,101704.97
2018-07-15T06:12:09.399Z,101702.24
2018-07-15T06:14:37.766Z,101699.96
2018-07-15T06:17:06.219Z,101700.80
2018-07-15T06:19:34.580Z,101702.83
2018-07-15T06:22:02.981Z,101700.95
2018-07-15T06:24:31.358Z,101707.41
2018-07-15T06:26:59.750Z,101709.02
2018-07-15T06:29:28.155Z,101708.05
2018-07-15T06:31:56.575Z,101706.09
2018-07-15T06:34:24.942Z,101707.81
2018-07-15T06:36:53.318Z,101702.48
2018-07-15T06:39:21.718Z,101704.58
2018-07-15T06:41:50.095Z,101702.78
2018-07-15T06:44:18.503Z,101703.91
2018-07-15T06:46:46.869Z,101701.77
2018-07-15T06:49:15.327Z,101673.42
2018-07-15T06:51:43.657Z,101699.44
2018-07-15T06:54:12.064Z,101699.48
2018-07-15T06:56:40.439Z,101694.11
2018-07-15T06:59:08.840Z,101695.42
2018-07-15T07:01:37.274Z,101692.78
2018-07-15T07:04:05.869Z,101691.05
2018-07-15T07:06:34.239Z,101691.92
2018-07-15T07:09:03.233Z,101685.73
2018-07-15T07:11:31.603Z,101684.69
2018-07-15T07:14:00.034Z,101685.48
2018-07-15T07:16:28.398Z,101696.09
2018-07-15T07:18:56.873Z,101695.45
2018-07-15T07:21:25.394Z,101692.80
2018-07-15T07:23:53.796Z,101694.81
2018-07-15T07:26:22.177Z,101693.08
2018-07-15T07:28:50.723Z,101699.94
2018-07-15T07:31:19.067Z,101697.05
2018-07-15T07:33:47.472Z,101705.76
2018-07-15T07:36:15.969Z,101702.07
2018-07-15T07:38:44.498Z,101708.53
2018-07-15T07:41:12.917Z,101702.44
2018-07-15T07:43:41.303Z,101702.07
2018-07-15T07:46:09.720Z,101700.87
2018-07-15T07:48:38.086Z,101702.67
2018-07-15T07:51:06.490Z,101699.62
2018-07-15T07:53:34.878Z,101699.62
2018-07-15T07:56:03.254Z,101702.66
2018-07-15T07:58:31.646Z,101698.88
2018-07-15T08:01:00.014Z,101694.79
2018-07-15T08:03:28.426Z,101699.65
2018-07-15T08:05:56.793Z,101699.65
2018-07-15T08:08:25.214Z,101699.48
2018-07-15T08:10:53.585Z,101697.15
2018-07-15T08:13:21.974Z,101699.89
2018-07-15T08:15:50.351Z,101695.23
2018-07-15T08:18:18.743Z,101692.80
2018-07-15T08:20:47.138Z,101690.69
2018-07-15T08:23:15.538Z,101692.14
2018-07-15T08:25:43.903Z,101694.98
2018-07-15T08:28:12.366Z,101687.52
2018-07-15T08:30:52.007Z,101683.55
2018-07-15T08:33:20.444Z,101688.03
2018-07-15T08:35:48.818Z,101692.28
2018-07-15T08:38:17.218Z,101692.91
2018-07-15T08:40:45.659Z,101692.91
2018-07-15T08:43:14.023Z,101695.18
2018-07-15T08:45:42.390Z,101692.16
2018-07-15T08:48:10.753Z,101692.58
2018-07-15T08:50:39.159Z,101692.09
2018-07-15T08:53:07.535Z,101691.99
2018-07-15T08:55:35.926Z,101693.31
2018-07-15T08:58:04.510Z,101687.61
2018-07-15T09:00:32.906Z,101691.16
2018-07-15T09:03:01.447Z,101690.40
2018-07-15T09:05:29.843Z,101686.23
2018-07-15T09:07:58.227Z,101692.31
2018-07-15T09:10:26.645Z,101693.42
2018-07-15T09:12:55.023Z,101692.99
2018-07-15T09:15:23.431Z,101693.48
2018-07-15T09:17:51.804Z,101694.16
2018-07-15T09:20:20.293Z,101701.69
2018-07-15T09:22:48.668Z,101699.98
2018-07-15T09:25:17.072Z,101700.11
2018-07-15T09:27:45.442Z,101698.87
2018-07-15T09:30:13.849Z,101693.66
2018-07-15T09:32:42.226Z,101696.86
2018-07-15T09:35:10.670Z,101688.95
2018-07-15T09:37:39.042Z,101689.30
2018-07-15T09:40:07.433Z,101695.81
2018-07-15T09:42:36.345Z,101700.63
2018-07-15T09:45:04.799Z,101701.58
2018-07-15T09:47:33.283Z,101692.94
2018-07-15T09:50:01.688Z,101701.15
2018-07-15T09:52:30.077Z,101692.56
2018-07-15T09:54:58.493Z,101692.30
2018-07-15T09:57:26.866Z,101688.80
2018-07-15T09:59:55.253Z,101691.26
2018-07-15T10:02:23.777Z,101695.02
2018-07-15T10:04:52.177Z,101690.55
2018-07-15T10:07:20.569Z,101686.89
2018-07-15T10:09:48.996Z,101683.81
2018-07-15T10:12:17.371Z,101687.55
2018-07-15T10:14:45.765Z,101681.95
2018-07-15T10:17:14.135Z,101674.49
2018-07-15T10:19:42.535Z,101677.59
2018-07-15T10:22:10.903Z,101675.00
2018-07-15T10:24:39.317Z,101665.91
2018-07-15T10:27:07.690Z,101676.73
2018-07-15T10:29:36.081Z,101671.52
2018-07-15T10:32:04.474Z,101670.84
2018-07-15T10:34:33.204Z,101665.16
2018-07-15T10:37:01.610Z,101665.06
2018-07-15T10:39:30.015Z,101664.52
2018-07-15T10:41:58.382Z,101663.41
2018-07-15T10:44:26.819Z,101661.31
2018-07-15T10:46:55.190Z,101654.59
2018-07-15T10:49:23.560Z,101663.61
2018-07-15T10:51:51.956Z,101663.30
2018-07-15T10:54:20.337Z,101666.95
2018-07-15T10:56:48.725Z,101664.48
2018-07-15T10:59:17.104Z,101661.54
2018-07-15T11:01:45.526Z,101660.11
2018-07-15T11:04:13.897Z,101664.88
2018-07-15T11:06:42.300Z,101668.54
2018-07-15T11:09:10.716Z,101658.66
2018-07-15T11:11:39.101Z,101654.17
2018-07-15T11:14:07.462Z,101651.84
2018-07-15T11:16:35.951Z,101648.52
2018-07-15T11:19:04.341Z,101647.36
2018-07-15T11:21:32.959Z,101653.42
2018-07-15T11:24:01.326Z,101647.97
2018-07-15T11:26:29.713Z,101641.33
2018-07-15T11:28:58.086Z,101641.33
2018-07-15T11:31:26.592Z,101646.22
2018-07-15T11:33:54.882Z,101637.80
2018-07-15T11:36:23.273Z,101635.27
2018-07-15T11:38:51.646Z,101633.89
2018-07-15T11:41:20.038Z,101633.27
2018-07-15T11:43:48.550Z,101622.86
2018-07-15T11:46:16.947Z,101620.09
2018-07-15T11:48:45.317Z,101621.67
2018-07-15T11:51:13.718Z,101624.77
2018-07-15T11:53:42.081Z,101624.38
2018-07-15T11:56:10.493Z,101618.64
2018-07-15T11:58:38.867Z,101616.70
2018-07-15T12:01:07.534Z,101612.36
2018-07-15T12:03:35.903Z,101610.27
2018-07-15T12:06:04.307Z,101605.42
2018-07-15T12:08:32.713Z,101611.12
2018-07-15T12:11:01.162Z,101614.30
2018-07-15T12:13:29.533Z,101607.44
2018-07-15T12:15:57.934Z,101607.52
2018-07-15T12:18:26.335Z,101606.83
2018-07-15T12:20:54.745Z,101612.33
2018-07-15T12:23:23.116Z,101612.63
2018-07-15T12:25:51.510Z,101611.98
2018-07-15T12:28:19.891Z,101596.69
2018-07-15T12:30:48.307Z,101610.59
2018-07-15T12:33:16.682Z,101606.86
2018-07-15T12:35:45.074Z,101604.83
2018-07-15T12:38:13.496Z,101611.35
2018-07-15T12:40:41.898Z,101605.78
2018-07-15T12:43:10.271Z,101604.56
2018-07-15T12:45:38.672Z,101603.37
2018-07-15T12:48:07.115Z,101602.36
2018-07-15T12:50:35.709Z,101596.55
2018-07-15T12:53:04.118Z,101594.16
2018-07-15T12:55:32.481Z,101597.45
2018-07-15T12:58:00.983Z,101598.56
2018-07-15T13:00:29.366Z,101586.52
2018-07-15T13:02:57.763Z,101589.70
2018-07-15T13:05:26.293Z,101588.45
2018-07-15T13:07:54.690Z,101585.00
2018-07-15T13:10:23.090Z,101579.28
2018-07-15T13:12:51.489Z,101578.77
2018-07-15T13:15:19.853Z,101579.96
2018-07-15T13:17:48.258Z,101582.49
2018-07-15T13:20:16.626Z,101579.23
2018-07-15T13:22:45.015Z,101579.67
2018-07-15T13:25:13.407Z,101575.58
2018-07-15T13:27:41.805Z,101572.36
2018-07-15T13:30:10.179Z,101570.80
2018-07-15T13:32:38.570Z,101573.56
2018-07-15T13:35:06.938Z,101565.25
2018-07-15T13:37:35.343Z,101561.02
2018-07-15T13:40:03.714Z,101563.02
2018-07-15T13:42:32.154Z,101562.02
2018-07-15T13:45:00.554Z,101566.48
2018-07-15T13:47:28.949Z,101566.06
2018-07-15T13:49:57.327Z,101558.16
2018-07-15T13:52:25.794Z,101555.41
2018-07-15T13:54:54.167Z,101554.49
2018-07-15T13:57:22.565Z,101560.93
2018-07-15T13:59:50.934Z,101555.02
2018-07-15T14:02:19.327Z,101552.88
2018-07-15T14:04:47.703Z,101551.50
2018-07-15T14:07:16.094Z,101549.74
2018-07-15T14:09:44.494Z,101541.89
2018-07-15T14:12:12.939Z,101551.55
2018-07-15T14:14:41.324Z,101554.30
2018-07-15T14:17:09.717Z,101548.50
2018-07-15T14:19:38.085Z,101549.97
2018-07-15T14:22:06.609Z,101545.17
2018-07-15T14:24:34.981Z,101553.02
2018-07-15T14:27:03.373Z,101546.22
2018-07-15T14:29:31.747Z,101543.22
2018-07-15T14:32:00.147Z,101542.77
2018-07-15T14:34:28.518Z,101538.64
2018-07-15T14:36:56.925Z,101536.48
2018-07-15T14:39:32.829Z,101533.08
2018-07-15T14:42:01.218Z,101532.93
2018-07-15T14:44:29.594Z,101534.98
2018-07-15T14:46:58.020Z,101525.28
2018-07-15T14:49:26.390Z,101528.86
2018-07-15T14:51:54.757Z,101527.80
2018-07-15T14:54:23.303Z,101525.19
2018-07-15T14:56:51.686Z,101527.68
2018-07-15T14:59:20.086Z,101526.77
2018-07-15T15:01:48.461Z,101531.06
2018-07-15T15:04:16.858Z,101527.68
2018-07-15T15:06:45.226Z,101528.21
2018-07-15T15:09:13.655Z,101531.09
2018-07-15T15:11:42.022Z,101529.50
2018-07-15T15:14:10.418Z,101529.97
2018-07-15T15:16:38.812Z,101524.70
2018-07-15T15:19:07.252Z,101519.30
2018-07-15T15:21:35.626Z,101523.53
2018-07-15T15:24:04.026Z,101524.17
2018-07-15T15:26:32.395Z,101528.73
2018-07-15T15:29:00.781Z,101521.95
2018-07-15T15:31:29.153Z,101519.84
2018-07-15T15:33:57.670Z,101519.77
2018-07-15T15:36:26.073Z,101509.04
2018-07-15T15:38:54.471Z,101510.41
2018-07-15T15:41:22.992Z,101513.42
2018-07-15T15:43:51.422Z,101502.99
2018-07-15T15:46:19.807Z,101507.70
2018-07-15T15:48:48.238Z,101504.00
2018-07-15T15:51:16.605Z,101505.41
2018-07-15T15:53:45.008Z,101499.11
2018-07-15T15:56:13.381Z,101498.52
2018-07-15T15:58:41.770Z,101496.64
2018-07-15T16:01:10.147Z,101498.31
2018-07-15T16:03:38.542Z,101493.16
2018-07-15T16:06:06.925Z,101496.33
2018-07-15T16:08:35.363Z,101500.53
2018-07-15T16:11:03.841Z,101488.38
2018-07-15T16:13:32.261Z,101494.81
2018-07-15T16:16:00.639Z,101495.22
2018-07-15T16:18:29.045Z,101496.40
2018-07-15T16:20:57.484Z,101496.05
2018-07-15T16:23:26.088Z,101491.24
2018-07-15T16:25:54.458Z,101492.02
2018-07-15T16:28:22.846Z,101489.88
2018-07-15T16:30:51.239Z,101488.31
2018-07-15T16:33:19.633Z,101488.89
2018-07-15T16:35:48.138Z,101479.22
2018-07-15T16:38:16.529Z,101482.72
2018-07-15T16:40:44.895Z,101470.75
2018-07-15T16:43:13.288Z,101476.02
2018-07-15T16:45:41.835Z,101473.39
2018-07-15T16:48:10.198Z,101470.89
2018-07-15T16:50:38.571Z,101474.63
2018-07-15T16:53:06.965Z,101473.14
2018-07-15T16:55:35.331Z,101474.89
2018-07-15T16:58:03.714Z,101478.55
2018-07-15T17:00:32.131Z,101479.87
2018-07-15T17:03:00.526Z,101477.66
2018-07-15T17:05:28.915Z,101479.55
2018-07-15T17:07:57.307Z,101479.88
2018-07-15T17:10:25.754Z,101469.27
2018-07-15T17:12:54.171Z,101475.09
2018-07-15T17:15:22.546Z,101478.68
2018-07-15T17:17:50.946Z,101472.23
2018-07-15T17:20:19.318Z,101483.05
2018-07-15T17:22:47.711Z,101483.70
2018-07-15T17:25:16.073Z,101485.98
2018-07-15T17:27:44.458Z,101481.22
2018-07-15T17:30:12.830Z,101480.27
2018-07-15T17:32:41.218Z,101479.21
2018-07-15T17:35:09.582Z,101484.39
2018-07-15T17:37:38.170Z,101483.22
2018-07-15T17:40:06.541Z,101485.94
2018-07-15T17:42:34.929Z,101488.02
2018-07-15T17:45:03.311Z,101493.41
2018-07-15T17:47:31.738Z,101486.36
2018-07-15T17:50:00.342Z,101483.08
2018-07-15T17:52:28.708Z,101488.84
2018-07-15T17:54:57.108Z,101491.12
2018-07-15T17:57:25.673Z,101490.87
2018-07-15T17:59:54.078Z,101491.78
2018-07-15T18:02:22.441Z,101488.64
2018-07-15T18:04:50.885Z,101495.16
2018-07-15T18:07:19.263Z,101489.50
2018-07-15T18:09:47.664Z,101484.36
2018-07-15T18:12:16.083Z,101487.87
2018-07-15T18:14:44.530Z,101487.72
2018-07-15T18:17:12.909Z,101493.16
2018-07-15T18:19:41.308Z,101486.55
2018-07-15T18:22:09.908Z,101489.27
2018-07-15T18:24:38.346Z,101495.34
2018-07-15T18:27:06.714Z,101493.99
2018-07-15T18:29:35.101Z,101493.03
2018-07-15T18:32:03.486Z,101502.66
2018-07-15T18:34:31.873Z,101502.16
2018-07-15T18:37:00.286Z,101499.78
2018-07-15T18:39:28.674Z,101500.40
2018-07-15T18:41:57.042Z,101506.46
2018-07-15T18:44:25.451Z,101506.33
2018-07-15T18:46:53.831Z,101507.48
2018-07-15T18:49:22.350Z,101507.71
2018-07-15T18:51:50.734Z,101513.66
2018-07-15T18:54:19.098Z,101514.73
2018-07-15T18:56:47.503Z,101515.86
2018-07-15T18:59:15.890Z,101512.59
2018-07-15T19:01:44.287Z,101519.88
2018-07-15T19:04:12.653Z,101523.20
2018-07-15T19:06:41.076Z,101518.17
2018-07-15T19:09:09.453Z,101518.37
2018-07-15T19:11:37.846Z,101519.00
2018-07-15T19:14:06.319Z,101520.95
2018-07-15T19:16:34.720Z,101521.52
2018-07-15T19:19:03.087Z,101522.08
2018-07-15T19:21:31.474Z,101519.49
2018-07-15T19:23:59.862Z,101524.86
2018-07-15T19:26:28.263Z,101521.45
2018-07-15T19:28:56.633Z,101522.50
2018-07-15T19:31:25.033Z,101529.20
2018-07-15T19:33:53.410Z,101532.80
2018-07-15T19:36:21.865Z,101543.03
2018-07-15T19:38:50.279Z,101542.70
2018-07-15T19:41:18.653Z,101540.60
2018-07-15T19:43:47.055Z,101540.70
2018-07-15T19:46:15.425Z,101539.51
2018-07-15T19:48:43.818Z,101536.95
2018-07-15T19:51:12.194Z,101538.75
2018-07-15T19:53:40.589Z,101538.81
2018-07-15T19:56:09.026Z,101537.15
2018-07-15T19:58:37.414Z,101531.95
2018-07-15T20:01:05.898Z,101529.36
2018-07-15T20:03:34.317Z,101526.80
2018-07-15T20:06:02.686Z,101528.22
2018-07-15T20:08:31.077Z,101530.02
2018-07-15T20:10:59.448Z,101534.50
2018-07-15T20:13:27.877Z,101535.43
2018-07-15T20:15:56.246Z,101533.30
2018-07-15T20:18:24.645Z,101533.77
2018-07-15T20:20:53.032Z,101539.12
2018-07-15T20:23:21.459Z,101537.41
2018-07-15T20:25:49.963Z,101538.37
2018-07-15T20:28:18.357Z,101536.67
2018-07-15T20:30:46.730Z,101533.64
2018-07-15T20:33:15.145Z,101535.47
2018-07-15T20:35:43.523Z,101536.85
2018-07-15T20:38:11.901Z,101534.31
2018-07-15T20:40:40.334Z,101533.52
2018-07-15T20:43:08.704Z,101529.22
2018-07-15T20:45:37.097Z,101532.78
2018-07-15T20:48:05.478Z,101527.53
2018-07-15T20:50:33.870Z,101528.95
2018-07-15T20:53:02.247Z,101529.42
2018-07-15T20:55:30.634Z,101520.70
2018-07-15T20:57:59.005Z,101522.98
2018-07-15T21:00:27.402Z,101529.63
2018-07-15T21:02:55.777Z,101521.31
2018-07-15T21:05:24.175Z,101527.95
2018-07-15T21:07:52.558Z,101531.95
2018-07-15T21:10:20.963Z,101539.91
2018-07-15T21:12:49.349Z,101541.31
2018-07-15T21:15:18.010Z,101541.41
2018-07-15T21:17:46.395Z,101549.77
2018-07-15T21:20:14.770Z,101541.95
2018-07-15T21:22:43.157Z,101547.26
2018-07-15T21:25:11.530Z,101542.94
2018-07-15T21:27:39.925Z,101538.13
2018-07-15T21:30:08.904Z,101543.84
2018-07-15T21:32:37.307Z,101549.20
2018-07-15T21:35:05.709Z,101547.89
2018-07-15T21:37:34.110Z,101549.23
2018-07-15T21:40:02.486Z,101547.09
2018-07-15T21:42:30.917Z,101547.13
2018-07-15T21:44:59.295Z,101555.52
2018-07-15T21:47:27.703Z,101555.55
2018-07-15T21:49:56.078Z,101556.03
2018-07-15T21:52:24.473Z,101552.09
2018-07-15T21:54:52.862Z,101559.60
2018-07-15T21:57:21.270Z,101553.95
2018-07-15T21:59:49.641Z,101556.59
2018-07-15T22:02:18.066Z,101555.33
2018-07-15T22:04:46.462Z,101559.73
2018-07-15T22:07:26.426Z,101563.28
2018-07-15T22:10:18.146Z,101562.00
2018-07-15T22:12:46.586Z,101564.23
2018-07-15T22:15:14.971Z,101566.02
2018-07-15T22:17:43.350Z,101569.99
2018-07-15T22:20:11.766Z,101567.38
2018-07-15T22:22:40.137Z,101569.59
2018-07-15T22:25:08.533Z,101573.59
2018-07-15T22:27:36.910Z,101573.98
2018-07-15T22:30:05.358Z,101574.91
2018-07-15T22:32:33.737Z,101577.11
2018-07-15T22:35:02.135Z,101574.50
2018-07-15T22:37:30.521Z,101571.90
2018-07-15T22:39:58.926Z,101571.92
2018-07-15T22:42:27.297Z,101568.45
2018-07-15T22:44:56.143Z,101561.89
2018-07-15T22:47:24.521Z,101560.59
2018-07-15T22:49:52.946Z,101563.68
2018-07-15T22:52:21.322Z,101562.82
2018-07-15T22:54:49.717Z,101563.28
2018-07-15T22:57:18.121Z,101563.75
2018-07-15T22:59:46.521Z,101565.52
2018-07-15T23:02:15.058Z,101569.91
2018-07-15T23:05:53.682Z,101568.16
2018-07-15T23:08:22.859Z,101573.85
2018-07-15T23:10:51.258Z,101569.50
2018-07-15T23:13:20.028Z,101571.69
2018-07-15T23:15:48.850Z,101568.20
2018-07-15T23:18:17.225Z,101568.64
2018-07-15T23:20:47.953Z,101563.41
2018-07-15T23:23:16.638Z,101562.09
2018-07-15T23:25:45.057Z,101559.88
2018-07-15T23:28:14.527Z,101555.48
2018-07-15T23:30:43.433Z,101561.19
2018-07-15T23:33:11.994Z,101552.44
2018-07-15T23:35:40.389Z,101547.20
2018-07-15T23:38:08.801Z,101545.03
2018-07-15T23:40:37.170Z,101548.98
2018-07-15T23:43:05.827Z,101545.47
2018-07-15T23:45:34.989Z,101544.16
2018-07-15T23:48:03.385Z,101542.85
2018-07-15T23:50:31.766Z,101536.75
2018-07-15T23:53:00.157Z,101542.41
2018-07-15T23:55:28.529Z,101541.97
2018-07-15T23:57:57.126Z,101539.81
